Time;durP1;ratioP1;P1;durP2;ratioP2;P2;SDS_P1;SDS_P2;PMS_P1;PMS_P2;Temp;Humidity;BMP_temperature;BMP_pressure;BME280_temperature;BME280_humidity;BME280_pressure;Samples;Min_cycle;Max_cycle;Signal;HPM_P1;HPM_P2
2022/12/23 00:00:53;;;;;;;9.52;0.70;;;;;;;;;;5069936;28;20048;-64
2022/12/23 00:03:24;;;;;;;2.10;0.70;;;;;;;;;;5001008;28;20044;-64
2022/12/23 00:05:54;;;;;;;6.10;0.80;;;;;;;;;;5092500;28;20399;-64
2022/12/23 00:08:24;;;;;;;4.15;0.80;;;;;;;;;;5092131;28;20048;-64
2022/12/23 00:10:56;;;;;;;6.40;0.90;;;;;;;;;;5092446;28;20400;-63
2022/12/23 00:16:15;;;;;;;10.35;1.30;;;;;;;;;;5089987;28;20044;-63
2022/12/23 00:18:44;;;;;;;4.90;1.13;;;;;;;;;;5092220;28;20054;-63
2022/12/23 00:21:16;;;;;;;4.13;1.08;;;;;;;;;;5089603;28;20059;-63
2022/12/23 00:23:48;;;;;;;7.57;1.48;;;;;;;;;;5089493;28;20048;-62
2022/12/23 00:26:18;;;;;;;;;;;;;;;;;;5089476;28;20159;-61
2022/12/23 00:28:48;;;;;;;3.20;1.10;;;;;;;;;;5089913;28;19920;-63
2022/12/23 00:31:19;;;;;;;2.50;1.10;;;;;;;;;;5072709;28;20063;-63
2022/12/23 00:33:53;;;;;;;5.63;1.20;;;;;;;;;;5055984;28;20577;-63
2022/12/23 00:36:28;;;;;;;3.05;1.40;;;;;;;;;;5072536;28;20499;-63
2022/12/23 00:44:37;;;;;;;8.52;1.50;;;;;;;;;;5069526;28;20052;-63
2022/12/23 00:49:40;;;;;;;8.55;1.98;;;;;;;;;;5052335;28;20099;-63
2022/12/23 00:49:56;;;;;;;4.63;1.40;;;;;;;;;;5052506;28;20053;-63
2022/12/23 00:52:26;;;;;;;7.15;1.52;;;;;;;;;;5069450;28;20082;-62
2022/12/23 00:54:55;;;;;;;6.18;1.42;;;;;;;;;;5052625;28;20416;-63
2022/12/23 00:57:25;;;;;;;5.50;1.40;;;;;;;;;;5052584;28;20048;-63
2022/12/23 00:59:55;;;;;;;7.15;1.95;;;;;;;;;;5069182;28;20057;-63
2022/12/23 01:05:37;;;;;;;6.30;1.73;;;;;;;;;;5013363;28;20764;-62
2022/12/23 01:08:10;;;;;;;6.88;1.52;;;;;;;;;;5013081;28;20061;-63
2022/12/23 01:10:41;;;;;;;7.30;1.48;;;;;;;;;;4997291;28;20434;-63
2022/12/23 01:13:11;;;;;;;6.97;1.58;;;;;;;;;;5013127;28;20053;-63
2022/12/23 01:15:40;;;;;;;7.30;1.70;;;;;;;;;;5015375;28;20057;-64
2022/12/23 01:18:10;;;;;;;5.78;1.23;;;;;;;;;;5033086;28;20080;-62
2022/12/23 01:20:40;;;;;;;9.77;1.63;;;;;;;;;;5032960;28;20065;-63
2022/12/23 01:23:10;;;;;;;7.97;1.60;;;;;;;;;;5032677;28;20057;-63
2022/12/23 01:25:41;;;;;;;9.73;1.30;;;;;;;;;;4997021;28;20540;-63
2022/12/23 01:28:11;;;;;;;5.22;1.30;;;;;;;;;;4996212;28;20061;-63
2022/12/23 01:30:41;;;;;;;5.05;1.48;;;;;;;;;;5012809;28;20053;-63
2022/12/23 01:33:10;;;;;;;5.50;1.25;;;;;;;;;;4964022;28;20482;-63
2022/12/23 01:35:40;;;;;;;4.55;1.30;;;;;;;;;;5029023;28;20057;-63
2022/12/23 01:38:09;;;;;;;5.40;1.40;;;;;;;;;;5012871;28;20378;-63
2022/12/23 01:40:42;;;;;;;4.20;1.23;;;;;;;;;;4996276;28;20061;-63
2022/12/23 01:43:16;;;;;;;1.48;0.75;;;;;;;;;;5047541;28;20057;-63
2022/12/23 01:45:47;;;;;;;2.80;1.02;;;;;;;;;;5052490;28;20057;-63
2022/12/23 01:48:23;;;;;;;3.53;0.80;;;;;;;;;;5012577;28;20058;-63
2022/12/23 01:50:59;;;;;;;5.07;0.73;;;;;;;;;;5012504;28;20058;-63
2022/12/23 01:53:37;;;;;;;3.45;1.20;;;;;;;;;;5012716;28;20091;-63
2022/12/23 01:56:19;;;;;;;1.88;0.80;;;;;;;;;;5008445;28;20052;-63
2022/12/23 01:59:01;;;;;;;1.70;0.73;;;;;;;;;;5072100;28;20052;-63
2022/12/23 02:04:23;;;;;;;2.78;0.82;;;;;;;;;;5071734;28;20041;-63
2022/12/23 02:09:41;;;;;;;4.40;0.70;;;;;;;;;;5038656;28;20063;-63
2022/12/23 02:12:41;;;;;;;1.80;0.63;;;;;;;;;;5072073;28;20408;-63
2022/12/23 02:18:33;;;;;;;2.63;0.90;;;;;;;;;;5071743;28;20377;-63
2022/12/23 02:21:12;;;;;;;2.15;0.65;;;;;;;;;;5055358;28;20051;-63
2022/12/23 02:24:06;;;;;;;1.23;0.50;;;;;;;;;;5071815;28;20044;-63
2022/12/23 02:27:01;;;;;;;2.45;0.60;;;;;;;;;;5084121;28;20499;-63
2022/12/23 02:30:04;;;;;;;2.85;0.60;;;;;;;;;;5094097;28;20396;-64
2022/12/23 02:32:47;;;;;;;6.22;0.50;;;;;;;;;;5091898;28;20500;-64
2022/12/23 02:35:26;;;;;;;3.33;0.75;;;;;;;;;;5093972;28;20404;-63
2022/12/23 02:37:56;;;;;;;4.40;0.70;;;;;;;;;;5093897;28;20102;-63
2022/12/23 02:40:44;;;;;;;3.10;0.40;;;;;;;;;;5094124;28;20055;-63
2022/12/23 02:43:35;;;;;;;3.90;0.60;;;;;;;;;;5093688;28;20106;-63
2022/12/23 02:46:19;;;;;;;1.27;0.70;;;;;;;;;;5093607;28;20040;-63
2022/12/23 02:49:35;;;;;;;1.35;0.63;;;;;;;;;;5093832;28;20388;-63
2022/12/23 02:52:13;;;;;;;1.15;0.50;;;;;;;;;;5074684;28;20393;-63
2022/12/23 02:54:51;;;;;;;1.40;0.60;;;;;;;;;;5058302;28;20056;-63
2022/12/23 02:57:28;;;;;;;1.05;0.43;;;;;;;;;;5074899;28;20048;-63
2022/12/23 03:00:00;;;;;;;2.35;0.80;;;;;;;;;;5093380;28;20058;-63
2022/12/23 03:02:34;;;;;;;3.05;0.80;;;;;;;;;;5093199;28;20044;-63
2022/12/23 03:05:22;;;;;;;2.42;0.60;;;;;;;;;;5058317;28;20052;-63
2022/12/23 03:07:54;;;;;;;1.80;0.50;;;;;;;;;;5093187;28;20059;-63
2022/12/23 03:10:51;;;;;;;2.53;0.57;;;;;;;;;;5093260;28;20066;-63
2022/12/23 03:13:33;;;;;;;1.08;0.65;;;;;;;;;;5074260;28;20059;-63
2022/12/23 03:16:26;;;;;;;2.60;1.02;;;;;;;;;;5093446;28;20048;-63
2022/12/23 03:19:15;;;;;;;1.65;0.50;;;;;;;;;;5074045;28;20056;-63
2022/12/23 03:22:18;;;;;;;3.78;0.60;;;;;;;;;;5093167;28;20036;-63
2022/12/23 03:25:24;;;;;;;0.85;0.40;;;;;;;;;;5092714;28;20032;-63
2022/12/23 03:27:59;;;;;;;2.97;0.65;;;;;;;;;;5092166;28;20056;-63
2022/12/23 03:30:32;;;;;;;1.35;0.60;;;;;;;;;;5057325;28;20040;-63
2022/12/23 03:33:33;;;;;;;2.45;0.60;;;;;;;;;;5092984;28;20047;-63
2022/12/23 03:36:14;;;;;;;1.83;0.93;;;;;;;;;;5092741;28;20597;-63
2022/12/23 03:38:47;;;;;;;3.40;0.55;;;;;;;;;;5073756;28;20048;-63
2022/12/23 03:41:40;;;;;;;4.60;0.90;;;;;;;;;;5057029;28;20040;-63
2022/12/23 03:44:20;;;;;;;2.28;0.70;;;;;;;;;;5073628;28;20044;-63
2022/12/23 03:46:58;;;;;;;3.90;0.80;;;;;;;;;;5073383;28;20044;-63
2022/12/23 03:49:52;;;;;;;3.25;1.10;;;;;;;;;;5092707;28;20055;-63
2022/12/23 03:52:34;;;;;;;4.20;1.00;;;;;;;;;;5092883;28;20051;-64
2022/12/23 03:55:10;;;;;;;4.93;1.35;;;;;;;;;;5075297;28;20063;-63
2022/12/23 03:58:21;;;;;;;6.10;1.40;;;;;;;;;;5073752;28;20044;-63
2022/12/23 04:01:16;;;;;;;5.10;0.98;;;;;;;;;;5030038;28;20053;-63
2022/12/23 04:04:10;;;;;;;3.60;1.25;;;;;;;;;;4996835;28;20529;-63
2022/12/23 04:07:00;;;;;;;4.82;1.40;;;;;;;;;;4997119;28;20057;-63
2022/12/23 04:09:29;;;;;;;8.60;1.73;;;;;;;;;;5030020;28;20060;-63
2022/12/23 04:12:00;;;;;;;5.40;1.75;;;;;;;;;;4996973;28;20053;-63
2022/12/23 04:14:31;;;;;;;5.55;1.80;;;;;;;;;;4997155;28;20087;-63
2022/12/23 04:17:02;;;;;;;6.90;1.83;;;;;;;;;;4981991;28;20062;-63
2022/12/23 04:19:32;;;;;;;4.82;1.10;;;;;;;;;;5029814;28;20053;-63
2022/12/23 04:22:02;;;;;;;4.22;1.80;;;;;;;;;;4996831;28;20089;-63
2022/12/23 04:24:31;;;;;;;4.47;2.47;;;;;;;;;;5013255;28;20395;-63
2022/12/23 04:27:01;;;;;;;6.45;1.40;;;;;;;;;;5029659;28;20068;-63
2022/12/23 04:29:31;;;;;;;6.88;2.22;;;;;;;;;;5029805;28;20149;-63
2022/12/23 04:32:01;;;;;;;4.32;1.13;;;;;;;;;;5029667;28;20065;-62
2022/12/23 04:34:30;;;;;;;3.20;1.30;;;;;;;;;;5029693;28;20408;-63
2022/12/23 04:37:00;;;;;;;3.30;1.10;;;;;;;;;;5016595;28;20058;-63
2022/12/23 04:39:29;;;;;;;2.15;1.00;;;;;;;;;;5092697;28;20060;-63
2022/12/23 04:41:59;;;;;;;5.07;1.35;;;;;;;;;;5096542;28;20055;-63
2022/12/23 04:44:29;;;;;;;3.10;1.27;;;;;;;;;;5096153;28;20044;-63
2022/12/23 04:46:59;;;;;;;4.45;2.00;;;;;;;;;;5096251;28;20369;-63
2022/12/23 04:49:29;;;;;;;3.80;1.15;;;;;;;;;;5095123;28;20051;-62
2022/12/23 04:51:59;;;;;;;2.80;1.00;;;;;;;;;;5096123;28;20495;-63
2022/12/23 04:54:29;;;;;;;6.75;1.45;;;;;;;;;;5095830;28;20043;-63
2022/12/23 04:56:59;;;;;;;7.18;1.35;;;;;;;;;;5076866;28;20055;-62
2022/12/23 04:59:30;;;;;;;3.67;1.42;;;;;;;;;;5093833;28;20078;-62
2022/12/23 05:02:01;;;;;;;7.28;1.70;;;;;;;;;;5093854;28;20052;-63
2022/12/23 05:04:30;;;;;;;3.47;1.30;;;;;;;;;;5095636;28;20048;-63
2022/12/23 05:07:00;;;;;;;5.82;1.80;;;;;;;;;;5044160;28;20415;-63
2022/12/23 05:09:30;;;;;;;2.85;1.00;;;;;;;;;;5095496;28;20051;-63
2022/12/23 05:11:59;;;;;;;3.22;1.00;;;;;;;;;;5095547;28;20044;-63
2022/12/23 05:14:29;;;;;;;2.80;0.98;;;;;;;;;;5093454;28;20502;-62
2022/12/23 05:16:59;;;;;;;5.07;0.82;;;;;;;;;;5095768;28;20514;-63
2022/12/23 05:19:35;;;;;;;1.77;0.88;;;;;;;;;;5095481;28;20036;-62
2022/12/23 05:22:04;;;;;;;2.78;1.20;;;;;;;;;;5095423;28;20044;-63
2022/12/23 05:24:34;;;;;;;3.10;0.70;;;;;;;;;;5095445;28;20399;-63
2022/12/23 05:27:04;;;;;;;4.60;0.90;;;;;;;;;;5076325;28;20092;-63
2022/12/23 05:29:34;;;;;;;3.05;1.08;;;;;;;;;;5093265;28;20423;-63
2022/12/23 05:32:04;;;;;;;2.85;0.90;;;;;;;;;;5077041;28;20407;-63
2022/12/23 05:34:33;;;;;;;3.28;0.80;;;;;;;;;;5094792;28;20036;-63
2022/12/23 05:37:03;;;;;;;1.92;0.68;;;;;;;;;;5093046;28;20060;-63
2022/12/23 05:39:32;;;;;;;2.45;0.73;;;;;;;;;;5095178;28;20102;-63
2022/12/23 05:42:02;;;;;;;3.63;0.65;;;;;;;;;;5095076;28;20048;-63
2022/12/23 05:44:32;;;;;;;2.45;0.90;;;;;;;;;;5092708;28;20052;-63
2022/12/23 05:47:02;;;;;;;1.60;0.63;;;;;;;;;;5094968;28;20055;-63
2022/12/23 05:49:31;;;;;;;2.28;0.60;;;;;;;;;;5058531;28;20526;-63
2022/12/23 05:52:01;;;;;;;3.38;0.70;;;;;;;;;;5094901;28;20040;-63
2022/12/23 05:54:30;;;;;;;1.00;0.50;;;;;;;;;;5092677;28;20058;-63
2022/12/23 05:57:00;;;;;;;1.13;0.70;;;;;;;;;;5075686;28;20130;-63
2022/12/23 05:59:30;;;;;;;6.03;1.00;;;;;;;;;;5094545;28;20055;-63
2022/12/23 06:02:00;;;;;;;5.53;0.95;;;;;;;;;;5094891;28;20498;-63
2022/12/23 06:04:30;;;;;;;4.15;0.70;;;;;;;;;;5075465;28;20055;-63
2022/12/23 06:06:59;;;;;;;1.50;0.65;;;;;;;;;;5094659;28;20047;-63
2022/12/23 06:09:29;;;;;;;1.30;0.80;;;;;;;;;;5094700;28;20492;-63
2022/12/23 06:11:58;;;;;;;5.78;1.00;;;;;;;;;;5094430;28;20415;-63
2022/12/23 06:14:28;;;;;;;4.00;1.00;;;;;;;;;;5094292;28;20056;-63
2022/12/23 06:16:58;;;;;;;2.78;0.98;;;;;;;;;;5094247;28;20063;-63
2022/12/23 06:19:28;;;;;;;6.13;1.00;;;;;;;;;;5094583;28;20048;-63
2022/12/23 06:21:57;;;;;;;4.50;0.95;;;;;;;;;;5094231;28;20055;-63
2022/12/23 06:24:27;;;;;;;3.58;1.30;;;;;;;;;;5094254;28;20051;-63
2022/12/23 06:26:57;;;;;;;5.97;1.63;;;;;;;;;;5094242;28;20070;-63
2022/12/23 06:29:26;;;;;;;6.00;2.55;;;;;;;;;;5075274;28;20438;-63
2022/12/23 06:31:57;;;;;;;9.82;2.55;;;;;;;;;;5075080;28;20518;-64
2022/12/23 06:34:27;;;;;;;9.90;3.03;;;;;;;;;;5075118;28;20067;-63
2022/12/23 06:36:57;;;;;;;11.48;2.97;;;;;;;;;;5075422;28;20075;-63
2022/12/23 06:39:28;;;;;;;12.43;3.85;;;;;;;;;;5094037;28;20511;-64
2022/12/23 06:41:57;;;;;;;7.50;3.05;;;;;;;;;;5093801;28;20399;-63
2022/12/23 06:44:27;;;;;;;8.40;2.38;;;;;;;;;;5071093;28;20048;-63
2022/12/23 06:46:57;;;;;;;6.90;2.35;;;;;;;;;;5054222;28;20056;-63
2022/12/23 06:49:26;;;;;;;6.95;2.85;;;;;;;;;;5021872;28;20059;-63
2022/12/23 06:51:56;;;;;;;5.80;1.98;;;;;;;;;;5054798;28;20063;-62
2022/12/23 06:54:25;;;;;;;10.80;2.55;;;;;;;;;;5071067;28;20059;-62
2022/12/23 06:56:55;;;;;;;5.50;2.03;;;;;;;;;;5050838;28;20052;-63
2022/12/23 06:59:25;;;;;;;7.30;2.25;;;;;;;;;;5051066;28;20060;-62
2022/12/23 07:01:55;;;;;;;12.95;2.55;;;;;;;;;;5049770;28;20587;-63
2022/12/23 07:04:25;;;;;;;7.32;2.80;;;;;;;;;;5034457;28;20068;-63
2022/12/23 07:06:56;;;;;;;7.50;2.10;;;;;;;;;;5034002;28;20519;-63
2022/12/23 07:09:26;;;;;;;6.18;1.88;;;;;;;;;;5017560;28;20064;-63
2022/12/23 07:11:56;;;;;;;4.63;1.95;;;;;;;;;;5033940;28;20057;-63
2022/12/23 07:14:26;;;;;;;5.53;2.22;;;;;;;;;;5050874;28;20496;-63
2022/12/23 07:16:55;;;;;;;4.60;2.22;;;;;;;;;;5034371;28;20076;-63
2022/12/23 07:19:25;;;;;;;6.15;1.80;;;;;;;;;;5017597;28;20555;-63
2022/12/23 07:21:55;;;;;;;7.53;1.95;;;;;;;;;;5059314;28;20389;-63
2022/12/23 07:24:24;;;;;;;4.65;1.30;;;;;;;;;;5053548;28;20060;-62
2022/12/23 07:26:54;;;;;;;4.85;1.98;;;;;;;;;;5070210;28;20068;-63
2022/12/23 07:29:24;;;;;;;4.78;1.52;;;;;;;;;;5037943;28;20080;-62
2022/12/23 07:31:54;;;;;;;2.97;1.10;;;;;;;;;;5030368;28;20053;-63
2022/12/23 07:34:24;;;;;;;3.60;1.38;;;;;;;;;;4998950;28;20060;-63
2022/12/23 07:36:54;;;;;;;3.63;1.25;;;;;;;;;;5036871;28;20527;-63
2022/12/23 07:39:24;;;;;;;5.88;1.70;;;;;;;;;;5020487;28;20061;-63
2022/12/23 07:41:54;;;;;;;5.53;1.50;;;;;;;;;;5053692;28;20080;-63
2022/12/23 07:44:44;;;;;;;3.70;1.40;;;;;;;;;;5056418;28;20052;-63
2022/12/23 07:47:14;;;;;;;4.22;1.30;;;;;;;;;;5030164;28;20441;-62
2022/12/23 07:49:43;;;;;;;5.95;1.73;;;;;;;;;;5030155;28;20053;-63
2022/12/23 07:52:13;;;;;;;6.40;1.60;;;;;;;;;;5030481;28;20525;-63
2022/12/23 07:54:43;;;;;;;4.28;1.13;;;;;;;;;;5013914;28;20072;-63
2022/12/23 07:57:13;;;;;;;3.05;1.02;;;;;;;;;;4998005;28;20061;-63
2022/12/23 07:59:42;;;;;;;3.05;0.95;;;;;;;;;;5029902;28;20053;-62
2022/12/23 08:02:12;;;;;;;3.92;1.40;;;;;;;;;;5035663;28;20053;-63
2022/12/23 08:04:42;;;;;;;3.15;1.15;;;;;;;;;;5036724;28;20064;-63
2022/12/23 08:07:14;;;;;;;4.95;1.60;;;;;;;;;;5070005;28;20044;-62
2022/12/23 08:09:44;;;;;;;5.18;1.17;;;;;;;;;;5069683;28;20492;-63
2022/12/23 08:12:14;;;;;;;2.38;1.10;;;;;;;;;;5035907;28;20045;-63
2022/12/23 08:14:44;;;;;;;7.20;1.40;;;;;;;;;;5036669;28;20060;-62
2022/12/23 08:17:14;;;;;;;3.13;1.45;;;;;;;;;;5036112;28;20059;-63
2022/12/23 08:19:43;;;;;;;3.05;1.30;;;;;;;;;;5069625;28;20044;-63
2022/12/23 08:22:13;;;;;;;6.03;1.48;;;;;;;;;;5029535;28;20425;-63
2022/12/23 08:24:43;;;;;;;3.92;1.45;;;;;;;;;;5047151;28;20067;-62
2022/12/23 08:27:13;;;;;;;4.55;1.50;;;;;;;;;;5019370;28;20057;-63
2022/12/23 08:29:42;;;;;;;3.83;1.63;;;;;;;;;;5019713;28;20053;-63
2022/12/23 08:32:12;;;;;;;5.00;1.30;;;;;;;;;;5036123;28;20048;-62
2022/12/23 08:34:41;;;;;;;3.03;1.20;;;;;;;;;;5069487;28;20476;-63
2022/12/23 08:37:11;;;;;;;4.55;1.30;;;;;;;;;;5020802;28;20048;-63
2022/12/23 08:39:42;;;;;;;2.95;1.35;;;;;;;;;;5069571;28;20053;-63
2022/12/23 08:42:12;;;;;;;3.15;1.60;;;;;;;;;;5069809;28;20488;-64
2022/12/23 08:44:42;;;;;;;8.45;1.35;;;;;;;;;;5035823;28;20049;-63
2022/12/23 08:47:12;;;;;;;6.45;2.10;;;;;;;;;;5069490;28;20057;-63
2022/12/23 08:49:42;;;;;;;9.68;2.20;;;;;;;;;;5069305;28;20057;-63
2022/12/23 08:52:12;;;;;;;10.27;2.15;;;;;;;;;;5019524;28;20056;-63
2022/12/23 08:54:41;;;;;;;9.73;2.30;;;;;;;;;;4986667;28;20535;-63
2022/12/23 08:57:11;;;;;;;8.93;2.15;;;;;;;;;;5069323;28;20055;-63
2022/12/23 08:59:40;;;;;;;7.57;1.83;;;;;;;;;;5017639;28;20510;-65
2022/12/23 09:02:13;;;;;;;10.23;1.90;;;;;;;;;;5073455;28;20488;-63
2022/12/23 09:04:43;;;;;;;8.30;2.15;;;;;;;;;;5091899;28;20044;-63
2022/12/23 09:07:13;;;;;;;7.30;2.47;;;;;;;;;;5089200;28;20056;-63
2022/12/23 09:09:43;;;;;;;8.48;2.38;;;;;;;;;;5072592;28;20056;-64
2022/12/23 09:12:12;;;;;;;5.40;2.65;;;;;;;;;;5089474;28;20159;-63
2022/12/23 09:14:46;;;;;;;7.55;2.65;;;;;;;;;;5089395;28;20044;-63
2022/12/23 09:17:16;;;;;;;8.30;2.83;;;;;;;;;;5089317;28;20048;-63
2022/12/23 09:19:46;;;;;;;8.70;2.40;;;;;;;;;;5089491;28;20060;-63
2022/12/23 09:22:20;;;;;;;9.90;2.15;;;;;;;;;;5055742;28;20060;-63
2022/12/23 09:24:51;;;;;;;3.90;1.70;;;;;;;;;;5090161;28;20052;-63
2022/12/23 09:27:20;;;;;;;5.30;1.73;;;;;;;;;;5059052;28;20499;-63
2022/12/23 09:29:50;;;;;;;10.13;2.47;;;;;;;;;;5075958;28;20056;-63
2022/12/23 09:32:20;;;;;;;4.75;1.75;;;;;;;;;;5092664;28;20055;-63
2022/12/23 09:34:50;;;;;;;5.35;1.88;;;;;;;;;;5092873;28;20074;-63
2022/12/23 09:37:19;;;;;;;6.97;2.50;;;;;;;;;;5042334;28;20048;-63
2022/12/23 09:39:49;;;;;;;9.75;2.38;;;;;;;;;;5092830;28;20420;-63
2022/12/23 09:42:30;;;;;;;7.72;2.40;;;;;;;;;;5059070;28;20490;-63
2022/12/23 09:45:35;;;;;;;12.77;1.85;;;;;;;;;;5092724;28;20060;-63
2022/12/23 09:48:15;;;;;;;3.03;1.08;;;;;;;;;;5092642;28;20040;-63
2022/12/23 09:50:45;;;;;;;5.68;1.10;;;;;;;;;;5092531;28;20455;-64
2022/12/23 09:53:20;;;;;;;4.75;1.20;;;;;;;;;;5092538;28;20055;-64
2022/12/23 09:56:12;;;;;;;6.00;1.10;;;;;;;;;;5059539;28;20063;-64
2022/12/23 09:58:49;;;;;;;9.93;0.93;;;;;;;;;;5092490;28;20503;-64
2022/12/23 10:01:27;;;;;;;4.55;0.75;;;;;;;;;;5092405;28;20059;-64
2022/12/23 10:04:21;;;;;;;9.82;1.38;;;;;;;;;;5092255;28;20102;-64
2022/12/23 10:07:21;;;;;;;8.52;1.00;;;;;;;;;;5075617;28;20411;-65
2022/12/23 10:09:54;;;;;;;10.68;1.45;;;;;;;;;;5021376;28;20401;-64
2022/12/23 10:12:41;;;;;;;2.13;0.90;;;;;;;;;;5031836;28;20058;-65
2022/12/23 10:15:42;;;;;;;5.00;0.90;;;;;;;;;;5031921;28;20061;-65
2022/12/23 10:18:21;;;;;;;2.72;0.80;;;;;;;;;;4973169;28;20088;-65
2022/12/23 10:21:02;;;;;;;7.07;0.80;;;;;;;;;;4973147;28;20063;-65
2022/12/23 10:23:37;;;;;;;3.83;0.88;;;;;;;;;;4972904;28;20468;-65
2022/12/23 10:26:30;;;;;;;2.28;0.77;;;;;;;;;;4972688;28;20051;-64
2022/12/23 10:29:14;;;;;;;2.95;0.80;;;;;;;;;;4956370;28;20517;-65
2022/12/23 10:32:06;;;;;;;3.15;1.02;;;;;;;;;;4973085;28;20050;-65
2022/12/23 10:34:39;;;;;;;2.08;0.80;;;;;;;;;;4914799;29;20052;-65
2022/12/23 10:37:46;;;;;;;3.53;0.80;;;;;;;;;;4915583;29;20528;-65
2022/12/23 10:40:45;;;;;;;3.35;1.10;;;;;;;;;;4813224;29;20053;-63
2022/12/23 10:43:40;;;;;;;4.00;0.70;;;;;;;;;;4858953;29;20510;-64
2022/12/23 10:46:20;;;;;;;3.80;0.70;;;;;;;;;;4862635;29;20068;-64
2022/12/23 10:49:27;;;;;;;3.83;0.88;;;;;;;;;;4877724;29;20065;-64
2022/12/23 10:52:23;;;;;;;3.55;1.02;;;;;;;;;;4892688;29;20064;-63
2022/12/23 10:54:52;;;;;;;2.88;0.82;;;;;;;;;;4862481;29;20063;-63
2022/12/23 10:57:23;;;;;;;5.47;0.93;;;;;;;;;;4915010;29;20083;-63
2022/12/23 10:59:53;;;;;;;3.55;0.60;;;;;;;;;;4915094;29;20067;-64
2022/12/23 11:02:42;;;;;;;2.67;0.70;;;;;;;;;;4914889;29;20060;-64
2022/12/23 11:05:16;;;;;;;3.88;0.73;;;;;;;;;;4914644;29;20055;-63
2022/12/23 11:07:47;;;;;;;2.75;1.05;;;;;;;;;;4899194;29;20059;-64
2022/12/23 11:10:27;;;;;;;2.40;1.08;;;;;;;;;;4895479;29;20071;-65
2022/12/23 11:12:57;;;;;;;2.25;0.82;;;;;;;;;;4953060;28;20061;-64
2022/12/23 11:15:37;;;;;;;6.20;0.93;;;;;;;;;;4998237;28;20160;-64
2022/12/23 11:18:17;;;;;;;2.88;1.15;;;;;;;;;;5054216;28;20515;-65
2022/12/23 11:21:05;;;;;;;4.03;1.00;;;;;;;;;;5070776;28;20059;-65
2022/12/23 11:23:36;;;;;;;2.88;0.90;;;;;;;;;;5070728;28;20048;-65
2022/12/23 11:26:13;;;;;;;2.80;0.90;;;;;;;;;;5036989;28;20057;-65
2022/12/23 11:28:52;;;;;;;3.00;1.08;;;;;;;;;;5070130;28;20058;-65
2022/12/23 11:31:28;;;;;;;5.63;1.00;;;;;;;;;;5070232;28;20425;-65
2022/12/23 11:33:59;;;;;;;3.20;1.00;;;;;;;;;;5070420;28;20532;-64
2022/12/23 11:36:31;;;;;;;3.13;0.70;;;;;;;;;;5037133;28;20059;-65
2022/12/23 11:39:06;;;;;;;7.15;1.20;;;;;;;;;;5004736;28;20581;-66
2022/12/23 11:41:38;;;;;;;;;;;;;;;;;;5040053;28;20420;-65
2022/12/23 11:44:22;;;;;;;1.35;0.68;;;;;;;;;;5092779;28;19928;-65
2022/12/23 11:46:52;;;;;;;2.80;1.13;;;;;;;;;;5090151;28;20055;-65
2022/12/23 11:49:30;;;;;;;3.53;1.02;;;;;;;;;;5090418;28;20048;-65
2022/12/23 11:52:08;;;;;;;1.92;0.50;;;;;;;;;;5092363;28;20070;-65
2022/12/23 11:54:38;;;;;;;;;;;;;;;;;;5093146;28;20392;-65
2022/12/23 11:57:17;;;;;;;1.67;0.60;;;;;;;;;;5057021;28;19920;-64
2022/12/23 11:59:49;;;;;;;4.82;1.02;;;;;;;;;;5091508;28;20047;-64
2022/12/23 12:02:21;;;;;;;1.52;0.60;;;;;;;;;;5090105;28;20056;-64
2022/12/23 12:05:18;;;;;;;3.63;0.80;;;;;;;;;;5039434;28;20040;-65
2022/12/23 12:07:50;;;;;;;10.60;0.98;;;;;;;;;;5090230;28;20440;-64
2022/12/23 12:10:30;;;;;;;15.70;1.00;;;;;;;;;;5089817;28;20059;-65
2022/12/23 12:13:04;;;;;;;1.52;0.80;;;;;;;;;;5039569;28;20055;-65
2022/12/23 12:15:36;;;;;;;1.52;1.05;;;;;;;;;;5039876;28;20428;-65
2022/12/23 12:18:10;;;;;;;1.67;0.70;;;;;;;;;;5089840;28;20051;-65
2022/12/23 12:20:58;;;;;;;4.93;0.90;;;;;;;;;;5089935;28;20067;-64
2022/12/23 12:23:54;;;;;;;2.55;0.60;;;;;;;;;;5056256;28;20066;-64
2022/12/23 12:26:49;;;;;;;2.75;1.13;;;;;;;;;;5019969;28;20059;-65
2022/12/23 12:29:46;;;;;;;1.90;1.00;;;;;;;;;;5089663;28;20047;-65
2022/12/23 12:32:31;;;;;;;4.30;1.00;;;;;;;;;;5089829;28;20045;-66
2022/12/23 12:35:27;;;;;;;1.83;0.60;;;;;;;;;;5043551;28;20056;-65
2022/12/23 12:38:05;;;;;;;0.93;0.52;;;;;;;;;;5009898;28;20058;-65
2022/12/23 12:40:51;;;;;;;2.08;0.68;;;;;;;;;;5024872;28;20413;-65
2022/12/23 12:43:33;;;;;;;2.53;0.60;;;;;;;;;;5029809;28;20497;-66
2022/12/23 12:46:03;;;;;;;2.22;0.90;;;;;;;;;;5029568;28;20050;-66
2022/12/23 12:48:48;;;;;;;3.42;0.50;;;;;;;;;;5029217;28;20433;-65
2022/12/23 12:51:39;;;;;;;5.55;0.70;;;;;;;;;;5029588;28;20045;-66
2022/12/23 12:54:26;;;;;;;1.92;0.65;;;;;;;;;;5029291;28;20049;-65
2022/12/23 12:56:58;;;;;;;1.63;1.10;;;;;;;;;;5029377;28;20058;-66
2022/12/23 12:59:33;;;;;;;3.03;0.70;;;;;;;;;;5030371;28;20045;-65
2022/12/23 13:02:20;;;;;;;2.75;0.68;;;;;;;;;;4984134;28;20062;-66
2022/12/23 13:04:56;;;;;;;1.98;0.60;;;;;;;;;;5033604;28;20053;-66
2022/12/23 13:07:57;;;;;;;4.70;0.63;;;;;;;;;;5000232;28;20140;-65
2022/12/23 13:10:55;;;;;;;4.22;1.40;;;;;;;;;;4922875;29;20542;-65
2022/12/23 13:13:27;;;;;;;2.05;0.93;;;;;;;;;;4955163;29;20086;-65
2022/12/23 13:16:03;;;;;;;3.97;0.80;;;;;;;;;;5008257;28;20537;-65
2022/12/23 13:18:54;;;;;;;2.42;0.55;;;;;;;;;;5013198;28;20438;-66
2022/12/23 13:21:27;;;;;;;;;;;;;;;;;;5013631;28;20061;-66
2022/12/23 13:24:10;;;;;;;2.13;0.40;;;;;;;;;;5013169;28;19937;-66
2022/12/23 13:27:13;;;;;;;1.58;0.70;;;;;;;;;;4981045;28;20062;-66
2022/12/23 13:29:52;;;;;;;3.28;0.50;;;;;;;;;;5012883;28;20073;-66
2022/12/23 13:33:06;;;;;;;2.35;0.73;;;;;;;;;;5012648;28;20517;-66
2022/12/23 13:36:01;;;;;;;3.25;0.68;;;;;;;;;;5013020;28;20058;-66
2022/12/23 13:38:52;;;;;;;1.60;0.68;;;;;;;;;;4948100;28;20072;-65
2022/12/23 13:41:32;;;;;;;1.75;0.50;;;;;;;;;;4980239;28;20054;-66
2022/12/23 13:44:08;;;;;;;1.17;0.52;;;;;;;;;;5012767;28;20038;-66
2022/12/23 13:46:46;;;;;;;2.28;0.50;;;;;;;;;;4994482;28;20063;-66
2022/12/23 13:49:31;;;;;;;1.45;0.60;;;;;;;;;;5038954;28;20115;-65
2022/12/23 13:52:13;;;;;;;1.45;0.30;;;;;;;;;;5072477;28;20048;-66
2022/12/23 13:55:21;;;;;;;1.25;0.40;;;;;;;;;;5093835;28;20055;-65
2022/12/23 13:58:10;;;;;;;1.90;0.60;;;;;;;;;;5042224;28;20507;-65
2022/12/23 14:00:40;;;;;;;1.17;0.60;;;;;;;;;;5094806;28;20040;-64
2022/12/23 14:03:13;;;;;;;3.20;0.70;;;;;;;;;;5094906;28;20487;-64
2022/12/23 14:05:51;;;;;;;1.33;0.70;;;;;;;;;;5094930;28;20050;-65
2022/12/23 14:08:50;;;;;;;1.42;0.60;;;;;;;;;;5094481;28;20510;-65
2022/12/23 14:11:27;;;;;;;2.58;0.77;;;;;;;;;;5031464;28;20062;-65
2022/12/23 14:14:00;;;;;;;2.25;0.52;;;;;;;;;;5015855;28;20046;-65
2022/12/23 14:16:37;;;;;;;2.03;0.60;;;;;;;;;;4998839;28;20053;-65
2022/12/23 14:19:31;;;;;;;3.50;0.45;;;;;;;;;;5015840;28;20068;-65
2022/12/23 14:22:21;;;;;;;1.98;0.47;;;;;;;;;;5031821;28;20460;-65
2022/12/23 14:25:25;;;;;;;1.73;0.70;;;;;;;;;;5031776;28;20049;-65
2022/12/23 14:27:55;;;;;;;2.88;0.50;;;;;;;;;;5031282;28;20056;-65
2022/12/23 14:30:34;;;;;;;4.32;0.70;;;;;;;;;;5031655;28;20454;-65
2022/12/23 14:33:25;;;;;;;0.57;0.30;;;;;;;;;;5031625;28;20069;-65
2022/12/23 14:36:13;;;;;;;0.50;0.50;;;;;;;;;;4998508;28;20080;-65
2022/12/23 14:39:12;;;;;;;2.50;0.90;;;;;;;;;;4973148;28;20077;-65
2022/12/23 14:41:52;;;;;;;3.00;0.40;;;;;;;;;;4972599;28;20058;-65
2022/12/23 14:44:36;;;;;;;2.65;0.50;;;;;;;;;;4972688;28;20067;-65
2022/12/23 14:47:36;;;;;;;1.90;0.50;;;;;;;;;;4987522;28;20056;-65
2022/12/23 14:50:32;;;;;;;1.65;0.50;;;;;;;;;;4956061;28;20054;-65
2022/12/23 14:53:22;;;;;;;2.35;0.43;;;;;;;;;;4924599;28;20054;-65
2022/12/23 14:56:17;;;;;;;3.53;0.40;;;;;;;;;;4972576;28;20051;-66
2022/12/23 14:58:51;;;;;;;2.20;0.68;;;;;;;;;;4940212;28;20582;-66
2022/12/23 15:01:28;;;;;;;2.38;0.60;;;;;;;;;;4940594;28;20046;-65
2022/12/23 15:04:04;;;;;;;2.60;0.50;;;;;;;;;;4972305;28;20521;-65
2022/12/23 15:06:49;;;;;;;1.95;0.45;;;;;;;;;;4972330;28;20051;-65
2022/12/23 15:09:27;;;;;;;1.25;0.45;;;;;;;;;;4972190;28;20050;-66
2022/12/23 15:12:05;;;;;;;1.55;0.30;;;;;;;;;;4971981;28;20406;-65
2022/12/23 15:14:39;;;;;;;1.60;0.47;;;;;;;;;;4924332;28;20081;-65
2022/12/23 15:17:27;;;;;;;1.20;0.50;;;;;;;;;;5022046;28;20559;-65
2022/12/23 15:20:13;;;;;;;0.47;0.30;;;;;;;;;;5030741;28;20172;-65
2022/12/23 15:22:45;;;;;;;1.73;0.52;;;;;;;;;;5029915;28;20445;-65
2022/12/23 15:25:25;;;;;;;6.57;0.43;;;;;;;;;;4997799;28;20060;-65
2022/12/23 15:27:57;;;;;;;1.08;0.40;;;;;;;;;;5092950;28;20070;-66
2022/12/23 15:30:35;;;;;;;1.27;0.40;;;;;;;;;;5092803;28;20081;-65
2022/12/23 15:33:08;;;;;;;2.15;0.40;;;;;;;;;;5090914;28;20052;-65
2022/12/23 15:36:03;;;;;;;2.20;0.32;;;;;;;;;;5093121;28;20047;-65
2022/12/23 15:38:36;;;;;;;4.45;0.40;;;;;;;;;;5073870;28;20048;-65
2022/12/23 15:41:21;;;;;;;1.40;0.38;;;;;;;;;;5070162;28;20044;-65
2022/12/23 15:43:57;;;;;;;2.85;0.40;;;;;;;;;;5053662;28;20056;-65
2022/12/23 15:46:28;;;;;;;2.25;0.50;;;;;;;;;;5020572;28;20082;-66
2022/12/23 15:48:58;;;;;;;0.63;0.30;;;;;;;;;;5053057;28;20040;-65
2022/12/23 15:51:33;;;;;;;2.65;0.50;;;;;;;;;;5053209;28;20127;-65
2022/12/23 15:54:39;;;;;;;1.10;0.30;;;;;;;;;;5070038;28;20052;-64
2022/12/23 15:57:16;;;;;;;2.20;0.50;;;;;;;;;;5069923;28;20064;-65
2022/12/23 15:59:46;;;;;;;6.78;0.40;;;;;;;;;;5053222;28;20044;-65
2022/12/23 16:02:28;;;;;;;3.10;0.50;;;;;;;;;;5069782;28;20060;-65